sensor_id;sensor_type;location;lat;lon;timestamp;temperature;humidity
997;DHT22;487;50.126;8.698;2023-01-31T00:01:50;5.60;99.90
997;DHT22;487;50.126;8.698;2023-01-31T00:04:18;5.50;99.90
997;DHT22;487;50.126;8.698;2023-01-31T00:06:46;5.50;99.90
997;DHT22;487;50.126;8.698;2023-01-31T00:09:17;5.50;99.90
997;DHT22;487;50.126;8.698;2023-01-31T00:11:45;5.40;99.90
997;DHT22;487;50.126;8.698;2023-01-31T00:14:17;5.50;99.90
997;DHT22;487;50.126;8.698;2023-01-31T00:16:45;5.40;99.90
997;DHT22;487;50.126;8.698;2023-01-31T00:19:15;5.40;99.90
997;DHT22;487;50.126;8.698;2023-01-31T00:21:43;5.30;99.90
997;DHT22;487;50.126;8.698;2023-01-31T00:24:11;5.20;99.90
997;DHT22;487;50.126;8.698;2023-01-31T00:26:40;5.20;99.90
997;DHT22;487;50.126;8.698;2023-01-31T00:29:08;5.20;99.90
997;DHT22;487;50.126;8.698;2023-01-31T00:31:36;5.10;99.90
997;DHT22;487;50.126;8.698;2023-01-31T00:34:05;5.10;99.90
997;DHT22;487;50.126;8.698;2023-01-31T00:36:34;5.10;99.90
997;DHT22;487;50.126;8.698;2023-01-31T00:39:05;5.10;99.90
997;DHT22;487;50.126;8.698;2023-01-31T00:41:34;5.10;99.90
997;DHT22;487;50.126;8.698;2023-01-31T00:44:04;5.10;99.90
997;DHT22;487;50.126;8.698;2023-01-31T00:46:32;5.10;99.90
997;DHT22;487;50.126;8.698;2023-01-31T00:49:01;5.10;99.90
997;DHT22;487;50.126;8.698;2023-01-31T00:51:29;5.10;99.90
997;DHT22;487;50.126;8.698;2023-01-31T00:53:58;5.10;99.90
997;DHT22;487;50.126;8.698;2023-01-31T00:56:25;5.00;99.90
997;DHT22;487;50.126;8.698;2023-01-31T05:00:36;4.70;85.40
997;DHT22;487;50.126;8.698;2023-01-31T05:03:06;4.70;85.80
997;DHT22;487;50.126;8.698;2023-01-31T05:05:34;4.60;94.70
997;DHT22;487;50.126;8.698;2023-01-31T05:08:02;4.60;93.50
997;DHT22;487;50.126;8.698;2023-01-31T05:10:32;4.50;92.70
997;DHT22;487;50.126;8.698;2023-01-31T05:13:01;4.50;96.80
997;DHT22;487;50.126;8.698;2023-01-31T05:15:29;4.50;98.00
997;DHT22;487;50.126;8.698;2023-01-31T05:17:59;4.50;98.80
997;DHT22;487;50.126;8.698;2023-01-31T05:20:31;4.40;95.00
997;DHT22;487;50.126;8.698;2023-01-31T05:23:00;4.30;98.70
997;DHT22;487;50.126;8.698;2023-01-31T05:25:29;4.20;95.80
997;DHT22;487;50.126;8.698;2023-01-31T05:27:58;4.30;96.40
997;DHT22;487;50.126;8.698;2023-01-31T05:32:54;4.20;97.90
997;DHT22;487;50.126;8.698;2023-01-31T05:35:23;4.20;99.90
997;DHT22;487;50.126;8.698;2023-01-31T05:37:52;4.20;97.20
997;DHT22;487;50.126;8.698;2023-01-31T05:40:21;4.10;99.90
997;DHT22;487;50.126;8.698;2023-01-31T05:42:53;4.20;97.60
997;DHT22;487;50.126;8.698;2023-01-31T05:45:21;4.20;97.40
997;DHT22;487;50.126;8.698;2023-01-31T05:47:49;4.20;97.40
997;DHT22;487;50.126;8.698;2023-01-31T05:50:17;4.10;97.30
997;DHT22;487;50.126;8.698;2023-01-31T05:52:51;4.10;97.00
997;DHT22;487;50.126;8.698;2023-01-31T05:55:19;4.00;97.70
997;DHT22;487;50.126;8.698;2023-01-31T05:57:48;4.00;99.90
997;DHT22;487;50.126;8.698;2023-01-31T06:00:17;4.00;99.90
997;DHT22;487;50.126;8.698;2023-01-31T06:02:45;4.00;99.90
997;DHT22;487;50.126;8.698;2023-01-31T06:05:14;4.00;99.90
997;DHT22;487;50.126;8.698;2023-01-31T06:07:42;3.90;99.90
997;DHT22;487;50.126;8.698;2023-01-31T06:10:11;3.80;99.90
997;DHT22;487;50.126;8.698;2023-01-31T06:12:40;3.90;99.90
997;DHT22;487;50.126;8.698;2023-01-31T06:15:09;3.80;99.90
997;DHT22;487;50.126;8.698;2023-01-31T06:17:37;3.80;99.90
997;DHT22;487;50.126;8.698;2023-01-31T06:20:05;3.70;99.90
997;DHT22;487;50.126;8.698;2023-01-31T06:22:33;3.70;99.90
997;DHT22;487;50.126;8.698;2023-01-31T06:25:02;3.70;99.90
997;DHT22;487;50.126;8.698;2023-01-31T06:30:00;3.70;99.90
997;DHT22;487;50.126;8.698;2023-01-31T06:32:28;3.70;99.90
997;DHT22;487;50.126;8.698;2023-01-31T06:37:25;3.70;99.90
997;DHT22;487;50.126;8.698;2023-01-31T06:39:53;3.70;99.90
997;DHT22;487;50.126;8.698;2023-01-31T06:42:21;3.70;99.90
997;DHT22;487;50.126;8.698;2023-01-31T06:44:50;3.70;99.90
997;DHT22;487;50.126;8.698;2023-01-31T06:47:18;3.70;99.90
997;DHT22;487;50.126;8.698;2023-01-31T06:49:46;3.80;99.90
997;DHT22;487;50.126;8.698;2023-01-31T06:52:14;3.80;99.90
997;DHT22;487;50.126;8.698;2023-01-31T06:54:42;3.90;99.90
997;DHT22;487;50.126;8.698;2023-01-31T06:57:10;3.90;99.90
997;DHT22;487;50.126;8.698;2023-01-31T06:59:38;3.90;99.90
997;DHT22;487;50.126;8.698;2023-01-31T07:02:08;3.80;99.90
997;DHT22;487;50.126;8.698;2023-01-31T07:04:36;3.80;99.90
997;DHT22;487;50.126;8.698;2023-01-31T07:07:04;3.80;99.90
997;DHT22;487;50.126;8.698;2023-01-31T07:09:32;3.80;99.90
997;DHT22;487;50.126;8.698;2023-01-31T07:12:01;3.80;99.90
997;DHT22;487;50.126;8.698;2023-01-31T07:14:30;3.70;99.90
997;DHT22;487;50.126;8.698;2023-01-31T07:17:03;3.70;99.90
997;DHT22;487;50.126;8.698;2023-01-31T07:19:33;3.70;99.90
997;DHT22;487;50.126;8.698;2023-01-31T07:24:29;3.80;99.90
997;DHT22;487;50.126;8.698;2023-01-31T07:26:56;3.80;99.90
997;DHT22;487;50.126;8.698;2023-01-31T07:29:24;3.80;99.90
997;DHT22;487;50.126;8.698;2023-01-31T07:31:53;3.80;99.90
997;DHT22;487;50.126;8.698;2023-01-31T07:34:22;3.80;99.90
997;DHT22;487;50.126;8.698;2023-01-31T07:36:51;3.80;99.90
997;DHT22;487;50.126;8.698;2023-01-31T07:39:19;3.80;99.90
997;DHT22;487;50.126;8.698;2023-01-31T07:41:47;3.80;99.90
997;DHT22;487;50.126;8.698;2023-01-31T07:44:15;3.80;99.90
997;DHT22;487;50.126;8.698;2023-01-31T07:46:43;3.90;99.90
997;DHT22;487;50.126;8.698;2023-01-31T07:49:11;3.90;99.90
997;DHT22;487;50.126;8.698;2023-01-31T07:51:39;4.00;99.90
997;DHT22;487;50.126;8.698;2023-01-31T07:54:10;4.00;99.90
997;DHT22;487;50.126;8.698;2023-01-31T07:56:38;4.10;99.90
997;DHT22;487;50.126;8.698;2023-01-31T08:01:34;4.40;99.90
997;DHT22;487;50.126;8.698;2023-01-31T08:04:20;4.60;99.90
997;DHT22;487;50.126;8.698;2023-01-31T08:06:50;4.70;99.90
997;DHT22;487;50.126;8.698;2023-01-31T08:09:21;4.70;99.20
997;DHT22;487;50.126;8.698;2023-01-31T08:11:50;4.70;96.30
997;DHT22;487;50.126;8.698;2023-01-31T08:14:18;4.70;98.60
997;DHT22;487;50.126;8.698;2023-01-31T08:16:51;4.70;91.00
997;DHT22;487;50.126;8.698;2023-01-31T08:19:20;4.70;91.00
997;DHT22;487;50.126;8.698;2023-01-31T08:21:48;4.80;90.40
997;DHT22;487;50.126;8.698;2023-01-31T08:24:16;4.80;89.00
997;DHT22;487;50.126;8.698;2023-01-31T08:26:45;4.80;93.10
997;DHT22;487;50.126;8.698;2023-01-31T08:29:13;4.80;92.70
997;DHT22;487;50.126;8.698;2023-01-31T08:31:42;4.80;86.00
997;DHT22;487;50.126;8.698;2023-01-31T08:34:10;4.80;91.10
997;DHT22;487;50.126;8.698;2023-01-31T08:36:38;4.80;82.80
997;DHT22;487;50.126;8.698;2023-01-31T08:41:35;4.60;77.20
997;DHT22;487;50.126;8.698;2023-01-31T08:44:05;4.60;82.20
997;DHT22;487;50.126;8.698;2023-01-31T08:46:35;4.60;90.30
997;DHT22;487;50.126;8.698;2023-01-31T08:49:04;4.50;91.30
997;DHT22;487;50.126;8.698;2023-01-31T08:51:33;4.50;87.00
997;DHT22;487;50.126;8.698;2023-01-31T08:54:01;4.30;87.50
997;DHT22;487;50.126;8.698;2023-01-31T08:56:29;4.30;93.10
997;DHT22;487;50.126;8.698;2023-01-31T08:58:57;4.30;95.60
997;DHT22;487;50.126;8.698;2023-01-31T09:03:55;4.00;97.50
997;DHT22;487;50.126;8.698;2023-01-31T09:06:24;4.00;99.90
997;DHT22;487;50.126;8.698;2023-01-31T09:08:54;4.10;99.90
997;DHT22;487;50.126;8.698;2023-01-31T09:11:26;4.10;99.90
997;DHT22;487;50.126;8.698;2023-01-31T09:13:55;4.10;99.90
997;DHT22;487;50.126;8.698;2023-01-31T09:16:27;4.20;99.90
997;DHT22;487;50.126;8.698;2023-01-31T09:21:26;4.20;99.90
997;DHT22;487;50.126;8.698;2023-01-31T09:23:55;4.30;99.90
997;DHT22;487;50.126;8.698;2023-01-31T09:26:24;4.20;99.90
997;DHT22;487;50.126;8.698;2023-01-31T09:28:52;4.20;99.90
997;DHT22;487;50.126;8.698;2023-01-31T09:31:21;4.20;99.90
997;DHT22;487;50.126;8.698;2023-01-31T09:33:50;4.30;99.90
997;DHT22;487;50.126;8.698;2023-01-31T09:36:21;4.30;99.90
997;DHT22;487;50.126;8.698;2023-01-31T09:38:52;4.30;99.90
997;DHT22;487;50.126;8.698;2023-01-31T09:41:25;4.10;99.90
997;DHT22;487;50.126;8.698;2023-01-31T09:43:57;4.10;99.90
997;DHT22;487;50.126;8.698;2023-01-31T09:46:31;4.00;99.90
997;DHT22;487;50.126;8.698;2023-01-31T09:49:08;4.00;99.90
997;DHT22;487;50.126;8.698;2023-01-31T09:51:37;4.10;99.90
997;DHT22;487;50.126;8.698;2023-01-31T09:54:17;4.10;99.90
997;DHT22;487;50.126;8.698;2023-01-31T09:56:53;4.20;99.90
997;DHT22;487;50.126;8.698;2023-01-31T09:59:28;4.20;99.90
997;DHT22;487;50.126;8.698;2023-01-31T10:02:02;4.40;99.90
997;DHT22;487;50.126;8.698;2023-01-31T10:04:59;4.40;99.90
997;DHT22;487;50.126;8.698;2023-01-31T10:07:33;4.60;99.90
997;DHT22;487;50.126;8.698;2023-01-31T10:10:12;4.70;99.90
997;DHT22;487;50.126;8.698;2023-01-31T10:12:44;4.70;99.90
997;DHT22;487;50.126;8.698;2023-01-31T10:15:17;4.70;99.90
997;DHT22;487;50.126;8.698;2023-01-31T10:17:52;4.60;99.90
997;DHT22;487;50.126;8.698;2023-01-31T10:20:31;4.50;99.90
997;DHT22;487;50.126;8.698;2023-01-31T10:23:04;4.50;99.90
997;DHT22;487;50.126;8.698;2023-01-31T10:25:37;4.50;99.90
997;DHT22;487;50.126;8.698;2023-01-31T10:28:12;4.50;99.90
997;DHT22;487;50.126;8.698;2023-01-31T10:30:43;4.40;99.90
997;DHT22;487;50.126;8.698;2023-01-31T10:33:21;4.40;99.90
997;DHT22;487;50.126;8.698;2023-01-31T10:35:53;4.40;99.90
997;DHT22;487;50.126;8.698;2023-01-31T10:38:26;4.40;99.90
997;DHT22;487;50.126;8.698;2023-01-31T10:41:01;4.40;99.90
997;DHT22;487;50.126;8.698;2023-01-31T10:43:37;4.30;99.90
997;DHT22;487;50.126;8.698;2023-01-31T10:46:09;4.30;99.90
997;DHT22;487;50.126;8.698;2023-01-31T10:48:39;4.20;99.90
997;DHT22;487;50.126;8.698;2023-01-31T10:51:26;4.30;99.90
997;DHT22;487;50.126;8.698;2023-01-31T10:54:08;4.30;99.90
997;DHT22;487;50.126;8.698;2023-01-31T10:56:41;4.30;99.90
997;DHT22;487;50.126;8.698;2023-01-31T10:59:18;4.30;99.90
997;DHT22;487;50.126;8.698;2023-01-31T11:01:49;4.40;99.90
997;DHT22;487;50.126;8.698;2023-01-31T11:04:28;4.40;99.90
997;DHT22;487;50.126;8.698;2023-01-31T11:07:00;4.40;99.90
997;DHT22;487;50.126;8.698;2023-01-31T11:09:32;4.50;99.90
997;DHT22;487;50.126;8.698;2023-01-31T11:12:02;4.50;99.90
997;DHT22;487;50.126;8.698;2023-01-31T11:14:31;4.50;99.90
997;DHT22;487;50.126;8.698;2023-01-31T11:17:01;4.50;99.90
997;DHT22;487;50.126;8.698;2023-01-31T11:19:34;4.50;99.90
997;DHT22;487;50.126;8.698;2023-01-31T11:22:06;4.60;99.90
997;DHT22;487;50.126;8.698;2023-01-31T11:24:36;4.70;99.90
997;DHT22;487;50.126;8.698;2023-01-31T11:27:10;4.60;99.90
997;DHT22;487;50.126;8.698;2023-01-31T11:29:40;4.60;99.90
997;DHT22;487;50.126;8.698;2023-01-31T11:32:17;4.60;99.90
997;DHT22;487;50.126;8.698;2023-01-31T11:34:55;4.70;99.90
997;DHT22;487;50.126;8.698;2023-01-31T11:37:25;4.70;99.90
997;DHT22;487;50.126;8.698;2023-01-31T11:39:55;4.80;99.90
997;DHT22;487;50.126;8.698;2023-01-31T11:42:24;4.80;99.90
997;DHT22;487;50.126;8.698;2023-01-31T11:44:57;4.80;99.90
997;DHT22;487;50.126;8.698;2023-01-31T11:47:38;4.90;99.90
997;DHT22;487;50.126;8.698;2023-01-31T11:50:18;5.00;99.90
997;DHT22;487;50.126;8.698;2023-01-31T11:52:53;5.10;99.90
997;DHT22;487;50.126;8.698;2023-01-31T11:55:21;5.10;99.90
997;DHT22;487;50.126;8.698;2023-01-31T11:57:55;5.00;99.90
997;DHT22;487;50.126;8.698;2023-01-31T12:00:25;5.00;99.90
997;DHT22;487;50.126;8.698;2023-01-31T12:03:01;5.10;99.90
997;DHT22;487;50.126;8.698;2023-01-31T12:05:36;5.10;99.90
997;DHT22;487;50.126;8.698;2023-01-31T12:08:26;5.10;99.90
997;DHT22;487;50.126;8.698;2023-01-31T12:10:56;5.20;99.90
997;DHT22;487;50.126;8.698;2023-01-31T12:13:25;5.20;99.90
997;DHT22;487;50.126;8.698;2023-01-31T12:15:56;5.30;99.90
997;DHT22;487;50.126;8.698;2023-01-31T12:18:52;5.20;99.90
997;DHT22;487;50.126;8.698;2023-01-31T12:21:33;5.20;99.90
997;DHT22;487;50.126;8.698;2023-01-31T12:24:10;5.30;99.90
997;DHT22;487;50.126;8.698;2023-01-31T12:26:46;5.20;99.90
997;DHT22;487;50.126;8.698;2023-01-31T12:29:32;5.20;99.90
997;DHT22;487;50.126;8.698;2023-01-31T12:32:28;5.20;99.90
997;DHT22;487;50.126;8.698;2023-01-31T12:35:16;5.20;99.90
997;DHT22;487;50.126;8.698;2023-01-31T12:37:56;5.40;99.90
997;DHT22;487;50.126;8.698;2023-01-31T12:40:38;5.50;99.90
997;DHT22;487;50.126;8.698;2023-01-31T12:43:21;5.50;99.90
997;DHT22;487;50.126;8.698;2023-01-31T12:46:02;5.60;99.90
997;DHT22;487;50.126;8.698;2023-01-31T12:48:45;5.50;99.90
997;DHT22;487;50.126;8.698;2023-01-31T12:51:28;5.50;99.90
997;DHT22;487;50.126;8.698;2023-01-31T12:54:13;5.60;99.90
997;DHT22;487;50.126;8.698;2023-01-31T12:57:01;5.60;99.90
997;DHT22;487;50.126;8.698;2023-01-31T12:59:41;5.70;99.90
997;DHT22;487;50.126;8.698;2023-01-31T13:02:21;5.70;99.90
997;DHT22;487;50.126;8.698;2023-01-31T13:04:57;7.40;99.90
997;DHT22;487;50.126;8.698;2023-01-31T13:07:31;5.60;99.90
997;DHT22;487;50.126;8.698;2023-01-31T13:10:03;5.60;99.90
997;DHT22;487;50.126;8.698;2023-01-31T13:12:36;5.60;99.90
997;DHT22;487;50.126;8.698;2023-01-31T13:15:12;5.60;99.90
997;DHT22;487;50.126;8.698;2023-01-31T13:17:42;5.70;99.90
997;DHT22;487;50.126;8.698;2023-01-31T13:20:21;5.70;99.90
997;DHT22;487;50.126;8.698;2023-01-31T13:22:54;5.60;99.90
997;DHT22;487;50.126;8.698;2023-01-31T13:25:28;5.50;99.90
997;DHT22;487;50.126;8.698;2023-01-31T13:28:01;5.50;99.90
997;DHT22;487;50.126;8.698;2023-01-31T13:30:35;5.60;99.90
997;DHT22;487;50.126;8.698;2023-01-31T13:33:15;5.50;99.90
997;DHT22;487;50.126;8.698;2023-01-31T13:35:49;5.60;99.90
997;DHT22;487;50.126;8.698;2023-01-31T13:38:20;5.60;99.90
997;DHT22;487;50.126;8.698;2023-01-31T13:40:51;5.70;99.90
997;DHT22;487;50.126;8.698;2023-01-31T13:43:21;5.60;99.90
997;DHT22;487;50.126;8.698;2023-01-31T13:45:52;5.60;99.90
997;DHT22;487;50.126;8.698;2023-01-31T13:48:26;5.70;99.90
997;DHT22;487;50.126;8.698;2023-01-31T13:50:59;5.70;99.90
997;DHT22;487;50.126;8.698;2023-01-31T13:53:30;5.70;99.90
997;DHT22;487;50.126;8.698;2023-01-31T13:56:01;5.80;99.90
997;DHT22;487;50.126;8.698;2023-01-31T13:58:33;5.80;99.90
997;DHT22;487;50.126;8.698;2023-01-31T14:01:03;5.80;99.90
997;DHT22;487;50.126;8.698;2023-01-31T14:04:24;5.80;99.90
997;DHT22;487;50.126;8.698;2023-01-31T14:07:23;5.80;99.90
997;DHT22;487;50.126;8.698;2023-01-31T14:10:26;5.80;99.90
997;DHT22;487;50.126;8.698;2023-01-31T14:13:24;5.80;99.90
997;DHT22;487;50.126;8.698;2023-01-31T14:15:54;5.80;99.90
997;DHT22;487;50.126;8.698;2023-01-31T14:18:39;5.70;99.90
997;DHT22;487;50.126;8.698;2023-01-31T14:30:32;5.70;99.90
997;DHT22;487;50.126;8.698;2023-01-31T14:33:07;5.50;99.90
997;DHT22;487;50.126;8.698;2023-01-31T14:36:17;5.50;99.90
997;DHT22;487;50.126;8.698;2023-01-31T14:39:17;5.40;99.90
997;DHT22;487;50.126;8.698;2023-01-31T14:45:05;5.40;99.90
997;DHT22;487;50.126;8.698;2023-01-31T14:47:52;5.40;99.90
997;DHT22;487;50.126;8.698;2023-01-31T14:50:39;5.40;99.90
997;DHT22;487;50.126;8.698;2023-01-31T14:53:30;5.40;99.90
997;DHT22;487;50.126;8.698;2023-01-31T14:56:15;5.30;99.90
997;DHT22;487;50.126;8.698;2023-01-31T14:58:47;5.30;99.90
997;DHT22;487;50.126;8.698;2023-01-31T15:01:19;5.30;99.90
997;DHT22;487;50.126;8.698;2023-01-31T15:03:51;5.30;99.90
997;DHT22;487;50.126;8.698;2023-01-31T15:06:24;5.30;1.00
997;DHT22;487;50.126;8.698;2023-01-31T15:11:42;5.40;1.00
997;DHT22;487;50.126;8.698;2023-01-31T15:14:33;5.40;1.00
997;DHT22;487;50.126;8.698;2023-01-31T15:17:11;5.40;1.00
997;DHT22;487;50.126;8.698;2023-01-31T15:20:11;5.40;1.00
997;DHT22;487;50.126;8.698;2023-01-31T15:22:41;5.40;1.00
997;DHT22;487;50.126;8.698;2023-01-31T15:25:20;5.40;1.00
997;DHT22;487;50.126;8.698;2023-01-31T15:27:50;5.40;1.00
997;DHT22;487;50.126;8.698;2023-01-31T15:30:21;5.60;1.00
997;DHT22;487;50.126;8.698;2023-01-31T15:32:54;5.50;1.00
997;DHT22;487;50.126;8.698;2023-01-31T15:35:28;5.60;1.00
997;DHT22;487;50.126;8.698;2023-01-31T15:38:00;5.60;1.00
997;DHT22;487;50.126;8.698;2023-01-31T15:40:30;5.60;1.00
997;DHT22;487;50.126;8.698;2023-01-31T15:43:13;5.60;1.00
997;DHT22;487;50.126;8.698;2023-01-31T15:48:15;5.60;1.00
997;DHT22;487;50.126;8.698;2023-01-31T15:50:51;5.60;1.00
997;DHT22;487;50.126;8.698;2023-01-31T15:53:22;5.60;1.00
997;DHT22;487;50.126;8.698;2023-01-31T15:55:53;5.60;1.00
997;DHT22;487;50.126;8.698;2023-01-31T15:58:23;5.50;1.00
997;DHT22;487;50.126;8.698;2023-01-31T16:00:53;5.60;1.00
997;DHT22;487;50.126;8.698;2023-01-31T16:03:25;5.60;1.00
997;DHT22;487;50.126;8.698;2023-01-31T16:05:56;5.60;1.00
997;DHT22;487;50.126;8.698;2023-01-31T16:08:28;5.60;1.00
997;DHT22;487;50.126;8.698;2023-01-31T16:11:00;5.60;1.00
997;DHT22;487;50.126;8.698;2023-01-31T16:13:30;5.60;1.00
997;DHT22;487;50.126;8.698;2023-01-31T16:16:02;5.60;1.00
997;DHT22;487;50.126;8.698;2023-01-31T16:18:32;5.70;1.00
997;DHT22;487;50.126;8.698;2023-01-31T16:21:12;5.60;99.90
997;DHT22;487;50.126;8.698;2023-01-31T16:23:42;5.60;99.90
997;DHT22;487;50.126;8.698;2023-01-31T16:26:13;5.60;1.00
997;DHT22;487;50.126;8.698;2023-01-31T16:28:43;5.50;1.00
997;DHT22;487;50.126;8.698;2023-01-31T16:31:15;5.70;99.90
997;DHT22;487;50.126;8.698;2023-01-31T16:33:57;5.70;99.90
997;DHT22;487;50.126;8.698;2023-01-31T16:36:29;5.70;99.90
997;DHT22;487;50.126;8.698;2023-01-31T16:39:00;5.70;99.90
997;DHT22;487;50.126;8.698;2023-01-31T16:41:38;5.70;99.90
997;DHT22;487;50.126;8.698;2023-01-31T16:44:11;5.70;99.90
997;DHT22;487;50.126;8.698;2023-01-31T16:46:42;5.70;99.90
997;DHT22;487;50.126;8.698;2023-01-31T16:49:21;5.70;99.90
997;DHT22;487;50.126;8.698;2023-01-31T16:51:50;5.70;99.90
997;DHT22;487;50.126;8.698;2023-01-31T16:54:22;5.70;99.90
997;DHT22;487;50.126;8.698;2023-01-31T16:57:17;5.70;99.90
997;DHT22;487;50.126;8.698;2023-01-31T16:59:50;5.70;99.90
997;DHT22;487;50.126;8.698;2023-01-31T17:02:23;5.70;99.90
997;DHT22;487;50.126;8.698;2023-01-31T17:04:55;5.70;99.90
997;DHT22;487;50.126;8.698;2023-01-31T17:07:26;5.70;99.90
997;DHT22;487;50.126;8.698;2023-01-31T17:09:57;5.70;99.90
997;DHT22;487;50.126;8.698;2023-01-31T17:12:28;5.70;99.90
997;DHT22;487;50.126;8.698;2023-01-31T17:14:57;5.70;99.90
997;DHT22;487;50.126;8.698;2023-01-31T17:17:30;5.70;99.90
997;DHT22;487;50.126;8.698;2023-01-31T17:20:01;5.80;99.90
997;DHT22;487;50.126;8.698;2023-01-31T17:22:29;5.80;99.90
997;DHT22;487;50.126;8.698;2023-01-31T17:24:57;5.80;99.90
997;DHT22;487;50.126;8.698;2023-01-31T17:27:26;5.80;99.90
997;DHT22;487;50.126;8.698;2023-01-31T17:29:54;5.90;99.90
997;DHT22;487;50.126;8.698;2023-01-31T17:32:22;5.90;99.90
997;DHT22;487;50.126;8.698;2023-01-31T17:34:50;5.90;99.90
997;DHT22;487;50.126;8.698;2023-01-31T17:37:19;5.90;99.90
997;DHT22;487;50.126;8.698;2023-01-31T17:39:57;5.90;99.90
997;DHT22;487;50.126;8.698;2023-01-31T17:42:25;5.90;99.90
997;DHT22;487;50.126;8.698;2023-01-31T17:47:21;6.00;99.90
997;DHT22;487;50.126;8.698;2023-01-31T17:49:49;6.00;99.90
997;DHT22;487;50.126;8.698;2023-01-31T17:52:18;6.00;99.90
997;DHT22;487;50.126;8.698;2023-01-31T17:54:46;6.00;99.90
997;DHT22;487;50.126;8.698;2023-01-31T17:57:14;6.00;99.90
997;DHT22;487;50.126;8.698;2023-01-31T17:59:43;6.00;99.90
997;DHT22;487;50.126;8.698;2023-01-31T18:02:11;6.10;99.90
997;DHT22;487;50.126;8.698;2023-01-31T18:04:39;6.10;99.90
997;DHT22;487;50.126;8.698;2023-01-31T18:07:07;6.10;99.90
997;DHT22;487;50.126;8.698;2023-01-31T18:09:36;6.10;99.90
997;DHT22;487;50.126;8.698;2023-01-31T18:12:04;6.10;99.90
997;DHT22;487;50.126;8.698;2023-01-31T18:14:32;6.10;99.90
997;DHT22;487;50.126;8.698;2023-01-31T18:17:00;6.10;99.90
997;DHT22;487;50.126;8.698;2023-01-31T18:19:28;6.20;99.90
997;DHT22;487;50.126;8.698;2023-01-31T18:21:56;6.20;99.90
997;DHT22;487;50.126;8.698;2023-01-31T18:24:25;6.20;99.90
997;DHT22;487;50.126;8.698;2023-01-31T18:26:54;6.20;99.90
997;DHT22;487;50.126;8.698;2023-01-31T18:31:53;6.30;99.90
997;DHT22;487;50.126;8.698;2023-01-31T18:34:24;6.30;99.90
997;DHT22;487;50.126;8.698;2023-01-31T18:36:52;6.30;99.90
997;DHT22;487;50.126;8.698;2023-01-31T18:39:20;6.30;99.90
997;DHT22;487;50.126;8.698;2023-01-31T18:41:49;6.30;99.90
997;DHT22;487;50.126;8.698;2023-01-31T18:44:18;6.20;99.90
997;DHT22;487;50.126;8.698;2023-01-31T18:46:46;6.20;99.90
997;DHT22;487;50.126;8.698;2023-01-31T18:49:14;6.30;99.90
997;DHT22;487;50.126;8.698;2023-01-31T18:51:43;6.20;99.90
997;DHT22;487;50.126;8.698;2023-01-31T18:54:12;6.30;99.90
997;DHT22;487;50.126;8.698;2023-01-31T18:56:40;6.30;99.90
997;DHT22;487;50.126;8.698;2023-01-31T18:59:09;6.30;99.90
997;DHT22;487;50.126;8.698;2023-01-31T19:01:38;6.20;99.90
997;DHT22;487;50.126;8.698;2023-01-31T19:04:09;6.20;99.90
997;DHT22;487;50.126;8.698;2023-01-31T19:06:37;6.20;99.90
997;DHT22;487;50.126;8.698;2023-01-31T19:09:07;6.20;99.90
997;DHT22;487;50.126;8.698;2023-01-31T19:11:35;6.20;99.90
997;DHT22;487;50.126;8.698;2023-01-31T19:14:04;6.20;99.90
997;DHT22;487;50.126;8.698;2023-01-31T19:16:35;6.20;99.90
997;DHT22;487;50.126;8.698;2023-01-31T19:19:08;6.30;99.90
997;DHT22;487;50.126;8.698;2023-01-31T19:21:37;6.30;99.90
997;DHT22;487;50.126;8.698;2023-01-31T19:24:07;6.30;99.90
997;DHT22;487;50.126;8.698;2023-01-31T19:26:36;6.30;99.90
997;DHT22;487;50.126;8.698;2023-01-31T19:29:04;6.30;99.90
997;DHT22;487;50.126;8.698;2023-01-31T19:31:35;6.30;99.90
997;DHT22;487;50.126;8.698;2023-01-31T19:34:05;6.30;99.90
997;DHT22;487;50.126;8.698;2023-01-31T19:36:34;6.30;99.90
997;DHT22;487;50.126;8.698;2023-01-31T19:39:05;6.20;99.90
997;DHT22;487;50.126;8.698;2023-01-31T19:41:34;6.20;99.90
997;DHT22;487;50.126;8.698;2023-01-31T19:44:03;6.20;99.90
997;DHT22;487;50.126;8.698;2023-01-31T19:46:32;6.20;99.90
997;DHT22;487;50.126;8.698;2023-01-31T19:49:01;6.30;99.90
997;DHT22;487;50.126;8.698;2023-01-31T19:51:31;6.30;99.90
997;DHT22;487;50.126;8.698;2023-01-31T19:54:00;6.30;99.90
997;DHT22;487;50.126;8.698;2023-01-31T19:56:29;6.30;99.90
997;DHT22;487;50.126;8.698;2023-01-31T19:58:58;6.30;99.90
997;DHT22;487;50.126;8.698;2023-01-31T20:01:26;6.30;99.90
997;DHT22;487;50.126;8.698;2023-01-31T20:03:54;6.30;99.90
997;DHT22;487;50.126;8.698;2023-01-31T20:06:24;6.40;99.90
997;DHT22;487;50.126;8.698;2023-01-31T20:08:55;6.40;99.90
997;DHT22;487;50.126;8.698;2023-01-31T20:11:25;6.40;99.90
997;DHT22;487;50.126;8.698;2023-01-31T20:13:54;6.40;99.90
997;DHT22;487;50.126;8.698;2023-01-31T20:16:23;6.40;99.90
997;DHT22;487;50.126;8.698;2023-01-31T20:21:21;6.50;99.90
997;DHT22;487;50.126;8.698;2023-01-31T20:23:49;6.50;99.90
997;DHT22;487;50.126;8.698;2023-01-31T20:26:19;6.60;99.90
997;DHT22;487;50.126;8.698;2023-01-31T20:28:50;6.60;99.90
997;DHT22;487;50.126;8.698;2023-01-31T20:31:17;6.50;99.90
997;DHT22;487;50.126;8.698;2023-01-31T20:33:45;6.60;99.90
997;DHT22;487;50.126;8.698;2023-01-31T20:36:14;6.60;99.90
997;DHT22;487;50.126;8.698;2023-01-31T20:38:42;6.60;99.90
997;DHT22;487;50.126;8.698;2023-01-31T20:41:10;6.70;99.90
997;DHT22;487;50.126;8.698;2023-01-31T20:43:42;6.70;99.90
997;DHT22;487;50.126;8.698;2023-01-31T20:46:12;6.70;99.90
997;DHT22;487;50.126;8.698;2023-01-31T20:48:41;6.60;99.90
997;DHT22;487;50.126;8.698;2023-01-31T20:51:08;6.60;99.90
997;DHT22;487;50.126;8.698;2023-01-31T20:53:37;6.60;99.90
997;DHT22;487;50.126;8.698;2023-01-31T20:56:06;6.60;99.90
997;DHT22;487;50.126;8.698;2023-01-31T20:58:37;6.50;99.90
997;DHT22;487;50.126;8.698;2023-01-31T21:01:08;6.50;99.90
997;DHT22;487;50.126;8.698;2023-01-31T21:03:36;6.50;99.90
997;DHT22;487;50.126;8.698;2023-01-31T21:06:05;6.50;99.90
997;DHT22;487;50.126;8.698;2023-01-31T21:08:34;6.50;99.90
997;DHT22;487;50.126;8.698;2023-01-31T21:11:04;6.40;99.90
997;DHT22;487;50.126;8.698;2023-01-31T21:13:33;6.40;99.90
997;DHT22;487;50.126;8.698;2023-01-31T21:16:04;6.40;99.90
997;DHT22;487;50.126;8.698;2023-01-31T21:18:35;6.40;99.90
997;DHT22;487;50.126;8.698;2023-01-31T21:21:04;6.40;99.90
997;DHT22;487;50.126;8.698;2023-01-31T21:23:34;6.40;99.90
997;DHT22;487;50.126;8.698;2023-01-31T21:26:03;6.40;99.90
997;DHT22;487;50.126;8.698;2023-01-31T21:28:31;6.40;99.90
997;DHT22;487;50.126;8.698;2023-01-31T21:31:00;6.40;99.90
997;DHT22;487;50.126;8.698;2023-01-31T21:33:29;6.40;99.90
997;DHT22;487;50.126;8.698;2023-01-31T21:35:58;6.40;99.90
997;DHT22;487;50.126;8.698;2023-01-31T21:38:32;6.40;99.90
997;DHT22;487;50.126;8.698;2023-01-31T21:41:00;6.30;99.90
997;DHT22;487;50.126;8.698;2023-01-31T21:43:46;6.30;99.90
997;DHT22;487;50.126;8.698;2023-01-31T21:46:14;6.30;99.90
997;DHT22;487;50.126;8.698;2023-01-31T21:48:42;6.30;99.90
997;DHT22;487;50.126;8.698;2023-01-31T21:51:12;6.30;99.90
997;DHT22;487;50.126;8.698;2023-01-31T21:53:41;6.30;99.90
997;DHT22;487;50.126;8.698;2023-01-31T21:56:10;6.40;99.90
997;DHT22;487;50.126;8.698;2023-01-31T21:58:39;6.40;99.90
997;DHT22;487;50.126;8.698;2023-01-31T22:01:10;6.40;99.90
997;DHT22;487;50.126;8.698;2023-01-31T22:03:39;6.40;99.90
997;DHT22;487;50.126;8.698;2023-01-31T22:06:11;6.40;99.90
997;DHT22;487;50.126;8.698;2023-01-31T22:08:39;6.40;99.90
997;DHT22;487;50.126;8.698;2023-01-31T22:11:09;6.40;99.90
997;DHT22;487;50.126;8.698;2023-01-31T22:13:38;6.40;99.90